createdAt,value
2019-03-24T00:01:22.207Z,25.73
2019-03-24T00:03:56.472Z,17.70
2019-03-24T00:06:30.780Z,15.43
2019-03-24T00:09:07.363Z,16.50
2019-03-24T00:11:41.643Z,24.53
2019-03-24T00:14:15.848Z,14.03
2019-03-24T00:16:50.085Z,26.10
2019-03-24T00:19:24.697Z,16.47
2019-03-24T00:21:58.931Z,18.20
2019-03-24T00:24:33.203Z,29.40
2019-03-24T00:27:09.406Z,29.13
2019-03-24T00:29:43.712Z,30.43
2019-03-24T00:32:17.941Z,15.20
2019-03-24T00:34:52.289Z,22.83
2019-03-24T00:37:26.818Z,17.77
2019-03-24T00:40:01.638Z,25.33
2019-03-24T00:42:35.935Z,27.60
2019-03-24T00:45:10.507Z,19.90
2019-03-24T00:47:44.744Z,23.37
2019-03-24T00:50:19.024Z,25.73
2019-03-24T00:52:53.247Z,31.93
2019-03-24T00:55:27.524Z,17.27
2019-03-24T00:58:01.762Z,18.37
2019-03-24T01:00:47.397Z,20.23
2019-03-24T01:03:21.694Z,21.60
2019-03-24T01:05:56.023Z,15.27
2019-03-24T01:08:30.324Z,26.17
2019-03-24T01:11:05.280Z,16.17
2019-03-24T01:13:39.503Z,20.57
2019-03-24T01:16:13.774Z,11.90
2019-03-24T01:18:48.292Z,16.27
2019-03-24T01:21:22.645Z,28.40
2019-03-24T01:23:57.136Z,12.43
2019-03-24T01:26:31.407Z,13.17
2019-03-24T01:29:05.701Z,18.63
2019-03-24T01:31:39.958Z,15.73
2019-03-24T01:34:14.191Z,13.10
2019-03-24T01:36:48.461Z,16.00
2019-03-24T01:39:23.062Z,11.23
2019-03-24T01:41:57.588Z,19.17
2019-03-24T01:44:32.124Z,15.10
2019-03-24T01:47:06.786Z,12.63
2019-03-24T01:49:41.011Z,22.43
2019-03-24T01:52:15.303Z,21.10
2019-03-24T01:54:50.181Z,21.80
2019-03-24T01:57:24.443Z,12.27
2019-03-24T01:59:58.747Z,11.30
2019-03-24T02:02:33.575Z,13.77
2019-03-24T02:05:08.264Z,17.80
2019-03-24T02:07:42.519Z,18.43
2019-03-24T02:10:17.005Z,13.83
2019-03-24T02:12:51.371Z,21.83
2019-03-24T02:15:25.614Z,29.33
2019-03-24T02:17:59.884Z,22.90
2019-03-24T02:20:34.396Z,17.37
2019-03-24T02:23:08.642Z,19.80
2019-03-24T02:25:42.950Z,17.93
2019-03-24T02:28:17.516Z,12.50
2019-03-24T02:30:51.976Z,7.90
2019-03-24T02:33:26.818Z,12.90
2019-03-24T02:36:01.052Z,22.40
2019-03-24T02:38:35.628Z,17.03
2019-03-24T02:41:10.166Z,21.87
2019-03-24T02:43:44.412Z,11.50
2019-03-24T02:46:24.516Z,11.53
2019-03-24T02:48:54.630Z,16.93
2019-03-24T02:51:28.858Z,20.90
2019-03-24T02:54:03.140Z,16.87
2019-03-24T02:56:37.364Z,19.30
2019-03-24T02:59:11.612Z,14.27
2019-03-24T03:01:45.846Z,8.93
2019-03-24T03:04:20.368Z,18.33
2019-03-24T03:06:54.670Z,7.23
2019-03-24T03:09:28.922Z,4.40
2019-03-24T03:12:03.242Z,9.33
2019-03-24T03:14:37.479Z,8.30
2019-03-24T03:17:11.774Z,6.60
2019-03-24T03:19:46.033Z,9.43
2019-03-24T03:22:20.282Z,9.70
2019-03-24T03:24:54.528Z,8.40
2019-03-24T03:27:29.004Z,10.13
2019-03-24T03:30:04.153Z,3.40
2019-03-24T03:32:38.469Z,4.50
2019-03-24T03:35:13.550Z,5.40
2019-03-24T03:37:47.782Z,5.20
2019-03-24T03:40:22.025Z,3.67
2019-03-24T03:42:56.575Z,5.13
2019-03-24T03:45:31.199Z,3.33
2019-03-24T03:48:05.494Z,6.90
2019-03-24T03:50:39.720Z,3.10
2019-03-24T03:53:13.940Z,7.03
2019-03-24T03:55:48.201Z,3.60
2019-03-24T03:58:22.509Z,6.77
2019-03-24T04:00:56.747Z,4.07
2019-03-24T04:03:31.394Z,12.20
2019-03-24T04:06:05.715Z,5.27
2019-03-24T04:08:39.939Z,7.10
2019-03-24T04:11:14.462Z,9.07
2019-03-24T04:13:48.691Z,7.77
2019-03-24T04:16:22.942Z,5.33
2019-03-24T04:18:57.501Z,9.57
2019-03-24T04:21:31.840Z,4.60
2019-03-24T04:24:06.174Z,7.23
2019-03-24T04:26:40.429Z,7.03
2019-03-24T04:29:14.645Z,6.93
2019-03-24T04:31:48.902Z,7.10
2019-03-24T04:34:23.503Z,3.80
2019-03-24T04:36:57.868Z,4.10
2019-03-24T04:39:32.108Z,4.07
2019-03-24T04:42:06.357Z,9.57
2019-03-24T04:44:40.657Z,15.20
2019-03-24T04:47:16.820Z,4.63
2019-03-24T04:49:51.480Z,4.97
2019-03-24T04:52:25.728Z,7.37
2019-03-24T04:54:59.958Z,11.70
2019-03-24T04:57:34.540Z,11.80
2019-03-24T05:00:10.208Z,7.50
2019-03-24T05:02:44.710Z,6.27
2019-03-24T05:05:18.935Z,4.27
2019-03-24T05:10:38.494Z,10.00
2019-03-24T05:13:12.727Z,7.90
2019-03-24T05:15:46.972Z,6.70
2019-03-24T05:18:21.198Z,3.70
2019-03-24T05:20:55.530Z,7.00
2019-03-24T05:23:29.765Z,6.43
2019-03-24T05:26:04.241Z,5.20
2019-03-24T05:28:38.469Z,4.63
2019-03-24T05:31:12.731Z,5.00
2019-03-24T05:33:46.960Z,10.37
2019-03-24T05:36:21.259Z,8.20
2019-03-24T05:38:55.481Z,4.90
2019-03-24T05:41:29.722Z,7.10
2019-03-24T05:44:04.042Z,8.60
2019-03-24T05:46:38.879Z,14.40
2019-03-24T05:49:13.185Z,18.13
2019-03-24T05:51:47.441Z,19.73
2019-03-24T05:54:22.033Z,22.30
2019-03-24T05:56:56.278Z,19.03
2019-03-24T05:59:30.511Z,19.43
2019-03-24T06:02:04.770Z,6.33
2019-03-24T06:04:39.018Z,4.55
2019-03-24T06:07:13.276Z,9.67
2019-03-24T06:09:47.839Z,3.83
2019-03-24T06:12:22.084Z,3.90
2019-03-24T06:14:56.311Z,3.60
2019-03-24T06:17:30.640Z,11.70
2019-03-24T06:20:05.515Z,9.00
2019-03-24T06:22:40.112Z,19.60
2019-03-24T06:25:14.493Z,25.23
2019-03-24T06:27:48.746Z,26.03
2019-03-24T06:30:22.979Z,20.13
2019-03-24T06:32:57.314Z,27.50
2019-03-24T06:35:31.616Z,8.40
2019-03-24T06:38:05.958Z,8.50
2019-03-24T06:40:40.260Z,14.70
2019-03-24T06:43:14.519Z,10.43
2019-03-24T06:45:49.062Z,12.27
2019-03-24T06:48:23.307Z,15.27
2019-03-24T06:50:57.530Z,6.70
2019-03-24T06:53:31.786Z,7.83
2019-03-24T06:56:06.013Z,5.97
2019-03-24T06:58:40.644Z,5.90
2019-03-24T07:01:14.831Z,5.80
2019-03-24T07:03:49.070Z,5.40
2019-03-24T07:06:23.645Z,5.40
2019-03-24T07:08:57.895Z,4.53
2019-03-24T07:11:32.131Z,4.97
2019-03-24T07:14:06.644Z,4.70
2019-03-24T07:16:41.117Z,4.60
2019-03-24T07:19:15.384Z,4.13
2019-03-24T07:21:49.930Z,5.67
2019-03-24T07:24:24.184Z,4.27
2019-03-24T07:26:58.411Z,4.63
2019-03-24T07:29:32.882Z,5.03
2019-03-24T07:32:07.188Z,5.20
2019-03-24T07:34:41.506Z,6.57
2019-03-24T07:37:15.755Z,11.70
2019-03-24T07:39:50.425Z,7.10
2019-03-24T07:42:24.745Z,11.97
2019-03-24T07:44:58.994Z,16.03
2019-03-24T07:47:33.546Z,10.07
2019-03-24T07:50:08.759Z,11.90
2019-03-24T07:52:42.992Z,8.87
2019-03-24T07:55:17.247Z,14.13
2019-03-24T07:57:51.554Z,10.73
2019-03-24T08:00:36.057Z,15.03
2019-03-24T08:03:10.284Z,17.27
2019-03-24T08:05:44.533Z,13.50
2019-03-24T08:08:18.764Z,12.13
2019-03-24T08:10:53.091Z,21.67
2019-03-24T08:13:27.405Z,11.60
2019-03-24T08:16:01.734Z,20.63
2019-03-24T08:18:36.317Z,12.70
2019-03-24T08:21:10.655Z,10.07
2019-03-24T08:23:44.888Z,15.73
2019-03-24T08:26:19.225Z,21.83
2019-03-24T08:28:53.466Z,10.97
2019-03-24T08:31:27.728Z,11.13
2019-03-24T08:34:02.250Z,8.53
2019-03-24T08:36:36.623Z,9.57
2019-03-24T08:39:10.866Z,20.80
2019-03-24T08:41:45.144Z,12.33
2019-03-24T08:44:19.684Z,21.37
2019-03-24T08:46:53.951Z,13.50
2019-03-24T08:49:28.182Z,19.37
2019-03-24T08:52:02.429Z,22.07
2019-03-24T08:54:36.661Z,11.30
2019-03-24T08:57:10.924Z,12.30
2019-03-24T08:59:45.502Z,17.40
2019-03-24T09:02:19.756Z,14.87
2019-03-24T09:04:53.992Z,13.93
2019-03-24T09:07:28.253Z,13.57
2019-03-24T09:10:02.500Z,14.50
2019-03-24T09:12:36.748Z,9.93
2019-03-24T09:15:11.137Z,11.53
2019-03-24T09:17:45.479Z,22.57
2019-03-24T09:20:19.881Z,16.10
2019-03-24T09:22:54.149Z,26.37
2019-03-24T09:25:28.410Z,11.77
2019-03-24T09:28:02.714Z,12.30
2019-03-24T09:30:38.886Z,10.90
2019-03-24T09:33:13.146Z,14.37
2019-03-24T09:35:47.469Z,15.37
2019-03-24T09:38:21.729Z,22.57
2019-03-24T09:40:56.330Z,18.57
2019-03-24T09:43:30.626Z,11.73
2019-03-24T09:46:04.936Z,13.23
2019-03-24T09:48:39.189Z,13.37
2019-03-24T09:51:13.429Z,14.47
2019-03-24T09:53:47.965Z,16.87
2019-03-24T09:56:22.204Z,16.80
2019-03-24T09:58:56.805Z,21.37
2019-03-24T10:01:31.044Z,19.13
2019-03-24T10:04:05.306Z,12.00
2019-03-24T10:06:39.599Z,13.67
2019-03-24T10:09:13.800Z,17.90
2019-03-24T10:11:49.091Z,16.03
2019-03-24T10:14:23.580Z,15.93
2019-03-24T10:16:57.786Z,14.90
2019-03-24T10:19:32.344Z,14.50
2019-03-24T10:22:06.650Z,11.70
2019-03-24T10:24:40.904Z,21.87
2019-03-24T10:27:15.147Z,14.20
2019-03-24T10:29:49.423Z,18.50
2019-03-24T10:32:23.667Z,15.23
2019-03-24T10:34:57.929Z,6.97
2019-03-24T10:37:32.173Z,9.10
2019-03-24T10:40:07.508Z,13.03
2019-03-24T10:42:41.976Z,16.83
2019-03-24T10:45:16.598Z,8.80
2019-03-24T10:47:50.849Z,14.83
2019-03-24T10:50:25.101Z,19.67
2019-03-24T10:52:59.687Z,11.70
2019-03-24T10:55:34.015Z,15.63
2019-03-24T10:58:08.321Z,15.70
2019-03-24T11:00:45.164Z,14.43
2019-03-24T11:03:19.589Z,9.77
2019-03-24T11:05:53.861Z,10.50
2019-03-24T11:08:28.179Z,14.53
2019-03-24T11:11:02.446Z,13.53
2019-03-24T11:13:37.264Z,14.37
2019-03-24T11:16:11.518Z,12.17
2019-03-24T11:18:45.762Z,12.93
2019-03-24T11:21:20.037Z,11.53
2019-03-24T11:23:54.272Z,13.70
2019-03-24T11:26:28.645Z,11.83
2019-03-24T11:29:03.516Z,9.30
2019-03-24T11:31:37.784Z,7.37
2019-03-24T11:34:12.455Z,9.30
2019-03-24T11:36:46.708Z,8.83
2019-03-24T11:39:21.212Z,7.70
2019-03-24T11:41:55.744Z,9.33
2019-03-24T11:44:29.935Z,8.63
2019-03-24T11:47:04.307Z,14.50
2019-03-24T11:49:46.071Z,11.93
2019-03-24T11:52:14.567Z,10.30
2019-03-24T11:54:48.813Z,8.87
2019-03-24T11:57:23.360Z,11.63
2019-03-24T11:59:57.616Z,9.63
2019-03-24T12:02:32.517Z,10.13
2019-03-24T12:05:07.843Z,6.93
2019-03-24T12:07:42.114Z,6.10
2019-03-24T12:10:16.442Z,6.03
2019-03-24T12:12:50.705Z,9.73
2019-03-24T12:15:25.018Z,7.13
2019-03-24T12:17:59.417Z,8.20
2019-03-24T12:20:33.800Z,8.40
2019-03-24T12:23:08.242Z,7.50
2019-03-24T12:25:42.813Z,8.93
2019-03-24T12:28:17.336Z,8.03
2019-03-24T12:30:51.958Z,7.57
2019-03-24T12:33:26.237Z,6.33
2019-03-24T12:36:00.477Z,8.90
2019-03-24T12:38:35.042Z,11.73
2019-03-24T12:41:09.357Z,5.07
2019-03-24T12:43:43.623Z,9.60
2019-03-24T12:46:17.870Z,12.10
2019-03-24T12:48:52.437Z,7.10
2019-03-24T12:51:26.695Z,9.20
2019-03-24T12:54:00.961Z,11.17
2019-03-24T12:56:35.205Z,10.40
2019-03-24T12:59:09.766Z,11.30
2019-03-24T13:01:44.018Z,16.03
2019-03-24T13:04:18.277Z,18.73
2019-03-24T13:06:52.519Z,6.97
2019-03-24T13:09:26.781Z,9.23
2019-03-24T13:12:01.040Z,8.57
2019-03-24T13:14:35.308Z,8.20
2019-03-24T13:17:09.632Z,6.90
2019-03-24T13:19:44.204Z,9.23
2019-03-24T13:22:18.529Z,8.80
2019-03-24T13:24:52.797Z,6.07
2019-03-24T13:27:27.041Z,7.53
2019-03-24T13:30:01.639Z,7.33
2019-03-24T13:32:35.898Z,7.90
2019-03-24T13:35:10.249Z,6.47
2019-03-24T13:37:44.823Z,9.03
2019-03-24T13:40:19.219Z,6.83
2019-03-24T13:42:53.539Z,9.33
2019-03-24T13:45:27.929Z,8.30
2019-03-24T13:48:02.173Z,8.97
2019-03-24T13:50:36.720Z,9.70
2019-03-24T13:53:10.961Z,10.13
2019-03-24T13:55:45.978Z,11.23
2019-03-24T13:58:20.306Z,6.63
2019-03-24T14:00:54.560Z,6.13
2019-03-24T14:03:28.801Z,7.70
2019-03-24T14:06:03.062Z,7.83
2019-03-24T14:08:37.303Z,8.27
2019-03-24T14:11:11.552Z,7.43
2019-03-24T14:13:46.097Z,5.00
2019-03-24T14:16:20.357Z,6.20
2019-03-24T14:18:54.608Z,5.50
2019-03-24T14:21:28.956Z,15.10
2019-03-24T14:24:03.203Z,13.13
2019-03-24T14:26:37.795Z,5.63
2019-03-24T14:29:12.034Z,8.00
2019-03-24T14:31:46.297Z,6.90
2019-03-24T14:34:20.533Z,5.10
2019-03-24T14:36:54.814Z,6.87
2019-03-24T14:39:29.387Z,4.30
2019-03-24T14:42:04.077Z,11.27
2019-03-24T14:44:38.313Z,6.43
2019-03-24T14:47:12.636Z,9.63
2019-03-24T14:49:47.101Z,8.97
2019-03-24T14:52:21.370Z,5.97
2019-03-24T14:54:55.882Z,8.97
2019-03-24T14:57:30.470Z,5.93
2019-03-24T15:00:06.554Z,7.13
2019-03-24T15:02:41.218Z,8.00
2019-03-24T15:05:15.808Z,9.07
2019-03-24T15:07:50.082Z,5.03
2019-03-24T15:10:24.326Z,6.67
2019-03-24T15:12:58.591Z,5.70
2019-03-24T15:15:32.843Z,4.23
2019-03-24T15:18:07.181Z,6.40
2019-03-24T15:20:41.414Z,9.50
2019-03-24T15:23:15.687Z,6.47
2019-03-24T15:25:49.920Z,11.23
2019-03-24T15:28:24.183Z,8.23
2019-03-24T15:30:58.829Z,2.63
2019-03-24T15:33:33.088Z,6.23
2019-03-24T15:36:07.646Z,8.97
2019-03-24T15:38:42.237Z,5.60
2019-03-24T15:41:18.422Z,5.57
2019-03-24T15:43:52.766Z,5.60
2019-03-24T15:46:27.009Z,1.80
2019-03-24T15:49:01.258Z,4.27
2019-03-24T15:51:35.785Z,3.50
2019-03-24T15:54:10.068Z,5.60
2019-03-24T15:56:44.350Z,2.67
2019-03-24T15:59:18.893Z,5.93
2019-03-24T16:01:53.121Z,6.97
2019-03-24T16:04:27.379Z,8.37
2019-03-24T16:07:01.625Z,5.00
2019-03-24T16:09:36.218Z,5.00
2019-03-24T16:12:10.470Z,8.53
2019-03-24T16:14:44.710Z,3.10
2019-03-24T16:17:18.939Z,7.50
2019-03-24T16:19:53.563Z,6.57
2019-03-24T16:22:27.823Z,13.33
2019-03-24T16:25:02.084Z,10.43
2019-03-24T16:27:36.640Z,5.17
2019-03-24T16:30:11.270Z,8.77
2019-03-24T16:32:45.483Z,9.67
2019-03-24T16:35:19.823Z,8.20
2019-03-24T16:37:54.065Z,10.03
2019-03-24T16:40:28.424Z,14.27
2019-03-24T16:43:02.836Z,8.77
2019-03-24T16:45:37.092Z,12.00
2019-03-24T16:48:11.377Z,8.43
2019-03-24T16:50:45.593Z,16.57
2019-03-24T16:53:19.810Z,8.03
2019-03-24T16:55:54.084Z,20.17
2019-03-24T16:58:28.349Z,10.53
2019-03-24T17:01:02.597Z,12.87
2019-03-24T17:03:36.839Z,9.60
2019-03-24T17:06:11.084Z,14.70
2019-03-24T17:08:45.325Z,12.10
2019-03-24T17:11:19.598Z,14.70
2019-03-24T17:13:54.087Z,10.67
2019-03-24T17:16:28.342Z,8.77
2019-03-24T17:19:02.572Z,9.97
2019-03-24T17:21:36.819Z,8.53
2019-03-24T17:24:11.056Z,9.07
2019-03-24T17:26:45.308Z,12.00
2019-03-24T17:29:19.537Z,6.80
2019-03-24T17:31:53.806Z,9.87
2019-03-24T17:34:28.313Z,13.90
2019-03-24T17:37:02.568Z,9.60
2019-03-24T17:39:36.807Z,5.07
2019-03-24T17:42:11.692Z,7.03
2019-03-24T17:44:45.924Z,11.70
2019-03-24T17:47:20.186Z,8.13
2019-03-24T17:49:54.416Z,9.60
2019-03-24T17:52:28.865Z,6.33
2019-03-24T17:55:03.100Z,12.77
2019-03-24T17:57:37.636Z,12.90
2019-03-24T18:00:14.023Z,10.53
2019-03-24T18:02:48.706Z,16.77
2019-03-24T18:05:23.012Z,12.30
2019-03-24T18:07:57.256Z,11.93
2019-03-24T18:10:31.854Z,12.90
2019-03-24T18:13:06.179Z,9.07
2019-03-24T18:15:40.660Z,8.93
2019-03-24T18:18:15.248Z,14.60
2019-03-24T18:20:49.503Z,15.30
2019-03-24T18:23:23.766Z,13.53
2019-03-24T18:25:58.259Z,9.90
2019-03-24T18:28:32.512Z,8.23
2019-03-24T18:31:06.888Z,11.00
2019-03-24T18:33:41.226Z,13.20
2019-03-24T18:36:15.464Z,11.50
2019-03-24T18:38:49.717Z,11.37
2019-03-24T18:41:24.027Z,9.43
2019-03-24T18:43:58.340Z,8.07
2019-03-24T18:46:32.580Z,11.10
2019-03-24T18:49:06.836Z,16.40
2019-03-24T18:51:41.073Z,16.83
2019-03-24T18:54:15.592Z,11.30
2019-03-24T18:56:50.174Z,11.23
2019-03-24T18:59:24.422Z,9.30
2019-03-24T19:01:58.690Z,11.13
2019-03-24T19:04:32.928Z,9.70
2019-03-24T19:07:07.262Z,12.60
2019-03-24T19:09:41.512Z,16.47
2019-03-24T19:12:15.843Z,11.67
2019-03-24T19:14:50.430Z,10.10
2019-03-24T19:17:24.741Z,13.47
2019-03-24T19:19:59.288Z,10.73
2019-03-24T19:22:33.987Z,9.93
2019-03-24T19:25:09.251Z,15.20
2019-03-24T19:27:43.492Z,6.73
2019-03-24T19:30:19.782Z,13.33
2019-03-24T19:32:54.101Z,13.27
2019-03-24T19:35:28.352Z,16.53
2019-03-24T19:38:03.108Z,10.03
2019-03-24T19:40:37.353Z,8.93
2019-03-24T19:43:11.605Z,13.67
2019-03-24T19:45:45.843Z,9.00
2019-03-24T19:48:20.089Z,10.13
2019-03-24T19:50:54.391Z,9.10
2019-03-24T19:53:28.638Z,7.37
2019-03-24T19:56:03.308Z,14.30
2019-03-24T19:58:37.555Z,8.23
2019-03-24T20:01:14.398Z,6.10
2019-03-24T20:03:48.164Z,10.00
2019-03-24T20:06:22.490Z,7.17
2019-03-24T20:08:56.713Z,11.73
2019-03-24T20:11:30.954Z,6.93
2019-03-24T20:14:05.270Z,12.73
2019-03-24T20:16:39.541Z,17.00
2019-03-24T20:19:13.778Z,4.40
2019-03-24T20:21:48.328Z,8.60
2019-03-24T20:24:22.555Z,12.13
2019-03-24T20:26:57.151Z,4.57
2019-03-24T20:29:31.668Z,18.00
2019-03-24T20:32:06.329Z,11.43
2019-03-24T20:34:40.564Z,10.80
2019-03-24T20:37:15.116Z,14.00
2019-03-24T20:39:49.916Z,7.83
2019-03-24T20:42:24.816Z,8.30
2019-03-24T20:44:59.385Z,14.60
2019-03-24T20:47:33.993Z,12.60
2019-03-24T20:50:09.395Z,10.73
2019-03-24T20:52:48.276Z,11.67
2019-03-24T20:55:22.584Z,6.37
2019-03-24T20:57:56.831Z,7.37
2019-03-24T21:00:33.916Z,6.80
2019-03-24T21:03:08.795Z,11.90
2019-03-24T21:05:43.071Z,8.30
2019-03-24T21:08:17.326Z,14.87
2019-03-24T21:10:51.594Z,4.63
2019-03-24T21:13:25.845Z,17.40
2019-03-24T21:16:00.580Z,6.97
2019-03-24T21:18:34.827Z,5.77
2019-03-24T21:21:09.059Z,6.13
2019-03-24T21:23:43.316Z,9.30
2019-03-24T21:26:17.631Z,14.57
2019-03-24T21:28:52.443Z,14.70
2019-03-24T21:31:26.940Z,11.67
2019-03-24T21:34:01.198Z,11.80
2019-03-24T21:36:35.442Z,7.47
2019-03-24T21:39:09.874Z,19.17
2019-03-24T21:41:44.115Z,11.03
2019-03-24T21:44:18.368Z,8.00
2019-03-24T21:46:52.600Z,7.90
2019-03-24T21:49:26.852Z,8.07
2019-03-24T21:52:01.085Z,11.00
2019-03-24T21:54:35.331Z,5.93
2019-03-24T21:57:09.925Z,12.43
2019-03-24T21:59:44.480Z,12.13
2019-03-24T22:02:18.708Z,7.43
2019-03-24T22:04:53.165Z,5.27
2019-03-24T22:07:27.819Z,11.20
2019-03-24T22:10:02.088Z,8.77
2019-03-24T22:12:36.311Z,14.03
2019-03-24T22:15:10.946Z,8.20
2019-03-24T22:17:45.179Z,8.43
2019-03-24T22:20:19.421Z,6.93
2019-03-24T22:22:53.667Z,9.93
2019-03-24T22:25:27.911Z,8.63
2019-03-24T22:28:02.144Z,12.57
2019-03-24T22:30:36.407Z,8.27
2019-03-24T22:33:10.709Z,6.47
2019-03-24T22:35:47.121Z,6.27
2019-03-24T22:38:20.925Z,8.70
2019-03-24T22:40:55.527Z,12.03
2019-03-24T22:43:30.109Z,13.17
2019-03-24T22:46:04.446Z,10.93
2019-03-24T22:48:38.740Z,9.67
2019-03-24T22:51:12.986Z,10.60
2019-03-24T22:53:47.226Z,16.30
2019-03-24T22:56:21.489Z,14.03
2019-03-24T22:58:56.033Z,15.40
2019-03-24T23:01:30.412Z,12.87
2019-03-24T23:04:04.895Z,8.57
2019-03-24T23:06:39.148Z,8.90
2019-03-24T23:09:13.552Z,13.97
2019-03-24T23:11:47.804Z,11.97
2019-03-24T23:14:22.060Z,17.37
2019-03-24T23:16:56.300Z,8.60
2019-03-24T23:19:30.531Z,14.80
2019-03-24T23:22:04.857Z,12.70
2019-03-24T23:24:39.087Z,19.13
2019-03-24T23:27:13.374Z,15.03
2019-03-24T23:29:47.604Z,11.40
2019-03-24T23:32:22.020Z,17.80
2019-03-24T23:34:56.242Z,11.33
2019-03-24T23:37:30.496Z,13.97
2019-03-24T23:40:05.699Z,11.03
2019-03-24T23:42:39.947Z,8.33
2019-03-24T23:45:14.435Z,13.53
2019-03-24T23:47:48.676Z,8.23
2019-03-24T23:50:22.919Z,11.63
2019-03-24T23:52:57.190Z,10.77
2019-03-24T23:55:31.414Z,9.70
2019-03-24T23:58:05.663Z,7.00
